Time;durP1;ratioP1;P1;durP2;ratioP2;P2;SDS_P1;SDS_P2;PMS_P1;PMS_P2;Temp;Humidity;BMP_temperature;BMP_pressure;BME280_temperature;BME280_humidity;BME280_pressure;Samples;Min_cycle;Max_cycle;Signal;HPM_P1;HPM_P2
2022/07/06 00:04:53;;;;;;;2.80;0.68;;;;;;;15.96;100.00;98848.63;15279135;19;20363;-55
2022/07/06 00:09:58;;;;;;;1.30;0.70;;;;;;;15.86;100.00;98862.50;15271870;19;20018;-52
2022/07/06 00:15:07;;;;;;;2.67;0.65;;;;;;;15.86;100.00;98854.34;15281113;19;20006;-56
2022/07/06 00:20:13;;;;;;;1.33;0.70;;;;;;;15.81;100.00;98862.16;15269786;19;20467;-52
2022/07/06 00:25:18;;;;;;;1.92;0.70;;;;;;;15.78;100.00;98862.53;15293204;19;20038;-52
2022/07/06 00:30:25;;;;;;;2.22;0.77;;;;;;;15.74;100.00;98865.81;15292206;19;20026;-51
2022/07/06 00:35:30;;;;;;;1.50;0.73;;;;;;;15.68;100.00;98856.50;15290826;19;20462;-51
2022/07/06 00:40:35;;;;;;;2.80;0.60;;;;;;;15.67;100.00;98861.13;15287046;19;20015;-53
2022/07/06 00:45:43;;;;;;;1.05;0.60;;;;;;;15.66;100.00;98861.28;15291842;19;20051;-53
2022/07/06 00:50:49;;;;;;;1.05;0.43;;;;;;;15.64;100.00;98861.47;15288625;19;20031;-52
2022/07/06 00:55:54;;;;;;;1.27;0.50;;;;;;;15.61;100.00;98866.44;15289399;19;20019;-54
2022/07/06 01:01:02;;;;;;;2.45;0.70;;;;;;;15.53;100.00;98860.03;15293527;19;20006;-55
2022/07/06 01:06:08;;;;;;;1.13;0.77;;;;;;;15.43;100.00;98859.44;15288569;19;20023;-58
2022/07/06 01:11:14;;;;;;;1.63;0.68;;;;;;;15.32;100.00;98846.28;15285410;19;20021;-53
2022/07/06 01:16:22;;;;;;;0.95;0.50;;;;;;;15.23;100.00;98848.22;15288595;19;20014;-53
2022/07/06 01:21:30;;;;;;;4.65;0.82;;;;;;;15.16;100.00;98848.13;15286102;19;20125;-56
2022/07/06 01:26:35;;;;;;;2.75;0.70;;;;;;;15.04;100.00;98850.38;15288629;19;20021;-53
2022/07/06 01:31:49;;;;;;;2.05;0.60;;;;;;;14.91;100.00;98861.84;15288386;19;20372;-52
2022/07/06 01:36:57;;;;;;;4.68;0.80;;;;;;;14.86;100.00;98852.56;15283388;19;20350;-55
2022/07/06 01:42:02;;;;;;;2.50;0.63;;;;;;;14.71;100.00;98850.59;15283255;19;20018;-55
2022/07/06 01:47:08;;;;;;;3.92;0.70;;;;;;;14.63;100.00;98847.91;15280213;19;20011;-59
2022/07/06 01:52:16;;;;;;;1.50;0.60;;;;;;;14.54;100.00;98855.22;15291689;19;20344;-56
2022/07/06 01:57:21;;;;;;;2.00;0.70;;;;;;;14.48;100.00;98848.63;15284938;19;20042;-55
2022/07/06 02:02:26;;;;;;;1.00;0.60;;;;;;;14.43;100.00;98848.28;15288341;19;20357;-55
2022/07/06 02:07:34;;;;;;;2.70;0.70;;;;;;;14.38;100.00;98853.41;15284810;19;20035;-55
2022/07/06 02:12:39;;;;;;;1.85;0.68;;;;;;;14.30;100.00;98858.84;15288062;19;20042;-58
2022/07/06 02:17:44;;;;;;;2.60;0.70;;;;;;;14.23;100.00;98869.53;15277579;19;20466;-58
2022/07/06 02:22:52;;;;;;;1.15;0.70;;;;;;;14.11;100.00;98871.78;15288966;19;20021;-59
2022/07/06 02:27:58;;;;;;;2.00;0.60;;;;;;;14.05;100.00;98866.22;15278562;19;20011;-58
2022/07/06 02:33:03;;;;;;;1.17;0.60;;;;;;;13.99;100.00;98857.75;15285910;19;20014;-55
2022/07/06 02:38:12;;;;;;;2.42;0.60;;;;;;;13.95;100.00;98869.09;15278812;19;20594;-56
2022/07/06 02:43:17;;;;;;;2.05;0.68;;;;;;;13.92;100.00;98873.00;15285583;19;20010;-56
2022/07/06 02:48:23;;;;;;;2.60;0.60;;;;;;;13.82;100.00;98864.22;15273582;19;20038;-55
2022/07/06 02:53:31;;;;;;;3.60;0.75;;;;;;;13.78;100.00;98860.16;15286141;19;20038;-57
2022/07/06 02:58:37;;;;;;;1.13;0.50;;;;;;;13.73;100.00;98865.25;15273784;19;20015;-56
2022/07/06 03:03:42;;;;;;;2.80;0.60;;;;;;;13.74;100.00;98869.66;15284777;19;20006;-56
2022/07/06 03:08:51;;;;;;;2.22;0.60;;;;;;;13.70;100.00;98880.81;15276148;19;20070;-58
2022/07/06 03:13:56;;;;;;;1.98;0.60;;;;;;;13.55;100.00;98888.78;15280451;19;20589;-56
2022/07/06 03:19:02;;;;;;;2.05;0.70;;;;;;;13.52;100.00;98899.94;15274442;19;20026;-59
2022/07/06 03:24:17;;;;;;;4.30;0.80;;;;;;;13.41;100.00;98887.56;15274700;19;20086;-58
2022/07/06 03:29:25;;;;;;;1.48;0.50;;;;;;;13.37;100.00;98885.34;15274345;19;20027;-57
2022/07/06 03:34:31;;;;;;;3.40;0.68;;;;;;;13.33;100.00;98894.84;15276918;19;20481;-58
2022/07/06 03:39:39;;;;;;;2.13;0.70;;;;;;;13.29;100.00;98902.41;15275648;19;20614;-60
2022/07/06 03:44:45;;;;;;;2.50;0.60;;;;;;;13.32;100.00;98903.97;15257941;19;20035;-60
2022/07/06 03:49:50;;;;;;;1.77;0.68;;;;;;;13.34;100.00;98907.34;15276551;19;20023;-59
2022/07/06 03:54:58;;;;;;;2.45;0.70;;;;;;;13.31;100.00;98902.28;15272675;19;20010;-59
2022/07/06 04:00:09;;;;;;;1.73;0.70;;;;;;;13.31;100.00;98913.91;15287670;19;20013;-54
2022/07/06 04:05:27;;;;;;;1.63;0.73;;;;;;;13.30;100.00;98908.69;15289030;19;20034;-56
2022/07/06 04:10:34;;;;;;;4.03;0.70;;;;;;;13.32;100.00;98914.78;15294558;19;20022;-57
2022/07/06 04:15:40;;;;;;;1.92;0.60;;;;;;;13.38;100.00;98923.09;15294063;19;20010;-54
2022/07/06 04:20:45;;;;;;;2.83;0.68;;;;;;;13.41;100.00;98924.63;15290180;19;20023;-56
2022/07/06 04:25:53;;;;;;;3.15;0.70;;;;;;;13.52;100.00;98920.78;15287646;19;20029;-54
2022/07/06 04:30:58;;;;;;;1.55;0.75;;;;;;;13.56;100.00;98928.38;15292674;19;20082;-56
2022/07/06 04:36:04;;;;;;;2.35;0.80;;;;;;;13.62;100.00;98926.00;15287747;19;20019;-59
2022/07/06 04:41:19;;;;;;;1.60;0.70;;;;;;;13.71;100.00;98939.38;15288760;19;20384;-58
2022/07/06 04:46:24;;;;;;;2.88;0.80;;;;;;;13.81;100.00;98947.34;15291678;19;20046;-59
2022/07/06 04:51:31;;;;;;;3.92;0.85;;;;;;;13.86;100.00;98944.97;15293876;19;20018;-58
2022/07/06 04:56:39;;;;;;;2.38;0.77;;;;;;;13.98;100.00;98955.44;15285386;19;20031;-59
2022/07/06 05:01:45;;;;;;;2.60;0.60;;;;;;;14.06;100.00;98960.03;15286428;19;20007;-58
2022/07/06 05:06:50;;;;;;;3.88;0.60;;;;;;;14.12;100.00;98954.75;15289275;19;20020;-58
2022/07/06 05:11:58;;;;;;;3.22;0.75;;;;;;;14.17;100.00;98957.78;15286434;19;20010;-58
2022/07/06 05:17:03;;;;;;;2.38;0.80;;;;;;;14.24;100.00;98957.13;15288654;19;20592;-57
2022/07/06 05:22:08;;;;;;;4.00;0.90;;;;;;;14.27;100.00;98957.63;15289234;19;20509;-57
2022/07/06 05:27:16;;;;;;;3.92;0.70;;;;;;;14.39;100.00;98960.84;15289841;19;20019;-58
2022/07/06 05:32:23;;;;;;;5.45;0.90;;;;;;;14.50;100.00;98962.31;15282809;19;20033;-55
2022/07/06 05:37:29;;;;;;;2.92;0.80;;;;;;;14.63;100.00;98956.38;15288091;19;20034;-57
2022/07/06 05:42:36;;;;;;;2.20;0.80;;;;;;;14.76;100.00;98962.09;15287524;19;20331;-58
2022/07/06 05:53:01;;;;;;;2.78;0.80;;;;;;;14.99;100.00;98971.34;15289919;19;20010;-55
2022/07/06 05:58:19;;;;;;;1.48;0.70;;;;;;;15.16;100.00;98962.09;15284706;19;20045;-56
2022/07/06 06:03:26;;;;;;;4.05;0.80;;;;;;;15.29;100.00;98969.66;15278379;19;20049;-55
2022/07/06 06:08:31;;;;;;;4.78;0.90;;;;;;;15.39;100.00;98973.00;15283252;19;20010;-59
2022/07/06 06:13:40;;;;;;;1.45;0.80;;;;;;;15.64;100.00;98966.56;15283090;19;20506;-56
2022/07/06 06:18:45;;;;;;;1.98;0.70;;;;;;;15.85;100.00;98976.78;15281717;19;20471;-58
2022/07/06 06:23:50;;;;;;;2.85;0.85;;;;;;;15.90;100.00;98979.81;15284657;19;20045;-59
2022/07/06 06:28:58;;;;;;;5.15;1.00;;;;;;;15.72;100.00;98975.47;15281681;19;20026;-59
2022/07/06 06:34:03;;;;;;;3.10;0.70;;;;;;;15.77;100.00;98987.69;15280681;19;20022;-59
2022/07/06 06:39:08;;;;;;;2.45;0.70;;;;;;;15.85;100.00;98993.09;15282466;19;20038;-54
2022/07/06 06:44:15;;;;;;;2.17;0.70;;;;;;;15.87;100.00;98993.75;15284640;19;20018;-58
2022/07/06 06:49:20;;;;;;;3.13;0.80;;;;;;;15.98;100.00;99001.47;15282155;19;20010;-58
2022/07/06 06:54:25;;;;;;;2.45;0.73;;;;;;;16.09;100.00;99002.06;15287142;19;20022;-59
2022/07/06 06:59:33;;;;;;;3.70;0.77;;;;;;;16.15;100.00;99009.50;15281313;19;20490;-58
2022/07/06 07:04:38;;;;;;;4.68;0.88;;;;;;;16.24;100.00;99004.81;15284470;19;20098;-57
2022/07/06 07:09:43;;;;;;;3.55;0.80;;;;;;;16.41;100.00;99003.66;15272938;19;20026;-58
2022/07/06 07:14:51;;;;;;;2.33;0.68;;;;;;;16.52;100.00;98999.66;15284539;19;20026;-59
2022/07/06 07:19:57;;;;;;;2.53;0.80;;;;;;;16.68;100.00;98998.63;15275646;19;20021;-59
2022/07/06 07:25:02;;;;;;;3.08;0.85;;;;;;;16.87;100.00;98999.94;15284175;19;20037;-58
2022/07/06 07:30:11;;;;;;;2.20;0.75;;;;;;;16.98;100.00;98997.81;15280532;19;20014;-58
2022/07/06 07:35:16;;;;;;;2.00;0.63;;;;;;;17.23;100.00;99003.78;15283052;19;20015;-57
2022/07/06 07:40:21;;;;;;;2.85;0.80;;;;;;;17.29;100.00;98999.47;15273037;19;20011;-87
2022/07/06 07:45:29;;;;;;;2.10;0.80;;;;;;;17.34;100.00;98991.56;15283833;19;20019;-87
2022/07/06 07:50:34;;;;;;;2.35;0.70;;;;;;;17.23;100.00;99001.06;15277321;19;20054;-88
2022/07/06 07:55:39;;;;;;;2.35;0.82;;;;;;;17.43;100.00;98986.84;15297522;19;20003;-85
2022/07/06 08:00:49;;;;;;;2.22;0.80;;;;;;;17.75;100.00;98985.50;15339504;19;20007;-86
2022/07/06 08:05:54;;;;;;;2.35;0.80;;;;;;;17.61;100.00;98991.84;15344283;19;20019;-88
2022/07/06 08:10:59;;;;;;;1.80;0.88;;;;;;;17.65;100.00;98987.72;15353886;19;19999;-88
2022/07/06 08:16:26;;;;;;;2.55;0.80;;;;;;;17.42;100.00;98988.72;15354820;19;20015;-88
2022/07/06 08:21:31;;;;;;;1.98;0.70;;;;;;;17.46;100.00;98984.59;15349370;19;20876;-88
2022/07/06 08:26:37;;;;;;;2.10;0.73;;;;;;;17.73;100.00;98984.03;15355645;19;20031;-87
2022/07/06 08:31:44;;;;;;;1.77;0.85;;;;;;;17.96;100.00;98970.19;15360750;19;20003;-88
2022/07/06 08:36:59;;;;;;;3.45;0.65;;;;;;;18.02;100.00;98967.56;15362587;19;20014;-88
2022/07/06 08:42:05;;;;;;;2.33;0.70;;;;;;;18.36;100.00;98973.28;15359210;19;20003;-88
2022/07/06 08:47:14;;;;;;;2.25;0.80;;;;;;;18.26;100.00;98967.34;15379203;19;20042;-88
2022/07/06 08:52:23;;;;;;;2.50;0.90;;;;;;;18.34;100.00;98972.63;15376094;19;20025;-88
2022/07/06 08:57:29;;;;;;;3.50;0.60;;;;;;;18.48;100.00;98968.09;15376538;19;20007;-88
2022/07/06 09:02:37;;;;;;;2.97;0.98;;;;;;;18.43;100.00;98968.72;15372462;19;20055;-88
2022/07/06 09:07:43;;;;;;;2.15;0.80;;;;;;;18.51;100.00;98969.63;15378120;19;20002;-88
2022/07/06 09:13:05;;;;;;;2.58;0.70;;;;;;;18.14;100.00;98967.88;15373298;19;20018;-88
2022/07/06 09:18:13;;;;;;;2.92;0.80;;;;;;;18.30;100.00;98984.97;15373082;19;20011;-88
2022/07/06 09:23:34;;;;;;;1.58;0.70;;;;;;;18.55;100.00;98970.88;15375391;19;20011;-86
2022/07/06 09:28:47;;;;;;;2.80;0.60;;;;;;;18.94;100.00;98964.00;15377276;19;20047;-86
2022/07/06 09:34:05;;;;;;;2.30;0.90;;;;;;;18.55;100.00;98965.44;15374184;19;20054;-87
2022/07/06 09:39:29;;;;;;;2.25;0.95;;;;;;;18.60;100.00;98979.31;15373269;19;20018;-88
2022/07/06 09:44:36;;;;;;;3.03;0.88;;;;;;;18.34;100.00;98980.81;15376116;19;20010;-87
2022/07/06 09:49:44;;;;;;;3.92;0.90;;;;;;;18.31;100.00;98979.34;15376978;19;20010;-87
2022/07/06 09:54:51;;;;;;;1.50;0.80;;;;;;;18.56;100.00;98975.31;15353841;19;20029;-88
2022/07/06 10:05:46;;;;;;;3.17;0.90;;;;;;;19.00;100.00;98967.81;15356099;19;20007;-86
2022/07/06 10:22:26;;;;;;;1.95;0.70;;;;;;;18.72;100.00;98975.00;15306657;19;20420;-86
2022/07/06 10:27:31;;;;;;;2.80;0.80;;;;;;;18.52;100.00;98974.03;15328845;19;20014;-86
2022/07/06 10:32:38;;;;;;;4.82;0.80;;;;;;;18.62;100.00;98971.78;15323115;19;20025;-86
2022/07/06 10:37:45;;;;;;;2.47;1.00;;;;;;;18.55;94.67;98962.69;15325708;19;20018;-86
2022/07/06 10:43:00;;;;;;;5.10;0.70;;;;;;;18.94;98.88;98948.47;15322607;19;20015;-86
2022/07/06 10:48:22;;;;;;;2.05;0.75;;;;;;;19.48;86.62;98953.28;15326935;19;20341;-87
2022/07/06 10:53:33;;;;;;;1.67;0.70;;;;;;;19.49;79.83;98939.44;15319476;19;20089;-87
2022/07/06 10:58:40;;;;;;;2.13;0.70;;;;;;;19.35;78.83;98954.91;15333011;19;20349;-86
2022/07/06 11:03:46;;;;;;;2.25;0.80;;;;;;;19.19;83.83;98950.66;15332587;19;20018;-88
2022/07/06 11:08:59;;;;;;;1.52;0.50;;;;;;;19.17;76.70;98935.53;15338602;19;20029;-87
2022/07/06 11:14:07;;;;;;;3.35;0.57;;;;;;;19.57;79.48;98930.19;15344930;19;20014;-87
2022/07/06 11:19:14;;;;;;;2.67;0.70;;;;;;;19.54;68.48;98941.53;15336530;19;20010;-86
2022/07/06 11:24:23;;;;;;;3.15;0.60;;;;;;;19.96;66.62;98927.75;15324043;19;20033;-87
2022/07/06 11:29:29;;;;;;;1.02;0.40;;;;;;;19.91;62.98;98931.09;15327614;19;20038;-86
2022/07/06 11:34:37;;;;;;;2.78;0.60;;;;;;;20.22;62.79;98932.34;15302426;19;20467;-86
2022/07/06 11:39:46;;;;;;;2.80;0.43;;;;;;;20.22;62.10;98931.53;15302213;19;20018;-86
2022/07/06 11:44:52;;;;;;;2.30;0.60;;;;;;;20.42;60.60;98932.34;15300266;19;20018;-86
2022/07/06 11:49:57;;;;;;;0.85;0.47;;;;;;;20.26;61.16;98935.50;15303694;19;20014;-88
2022/07/06 11:55:04;;;;;;;2.47;0.65;;;;;;;20.36;60.43;98940.56;15299673;19;20025;-86
2022/07/06 12:00:11;;;;;;;2.35;0.60;;;;;;;20.58;60.06;98930.22;15299677;19;20007;-86
2022/07/06 12:05:31;;;;;;;5.53;0.50;;;;;;;20.45;58.86;98920.97;15273606;19;20471;-58
2022/07/06 12:10:39;;;;;;;3.55;0.60;;;;;;;20.74;57.45;98907.84;15271635;19;20024;-58
2022/07/06 12:15:44;;;;;;;0.82;0.45;;;;;;;21.23;56.58;98916.47;15280473;19;20014;-54
2022/07/06 12:20:49;;;;;;;0.70;0.50;;;;;;;21.45;57.33;98918.06;15291393;19;20491;-54
2022/07/06 12:25:57;;;;;;;1.52;0.40;;;;;;;21.78;53.75;98909.66;15294779;19;20002;-56
2022/07/06 12:31:02;;;;;;;1.77;0.50;;;;;;;21.50;54.08;98912.78;15288871;19;20301;-55
2022/07/06 12:36:15;;;;;;;3.53;0.52;;;;;;;21.41;52.02;98923.16;15294242;19;20011;-54
2022/07/06 12:41:34;;;;;;;2.72;0.60;;;;;;;21.36;52.54;98914.72;15285587;19;20051;-58
2022/07/06 12:46:41;;;;;;;1.35;0.50;;;;;;;21.30;53.38;98916.44;15292096;19;20011;-58
2022/07/06 12:52:00;;;;;;;1.33;0.50;;;;;;;21.26;53.35;98909.75;15293094;19;20010;-53
2022/07/06 12:57:16;;;;;;;5.05;0.65;;;;;;;21.16;52.03;98902.00;15291483;19;20042;-56
2022/07/06 13:02:24;;;;;;;5.97;0.70;;;;;;;21.35;50.81;98908.44;15282546;19;20018;-53
2022/07/06 13:07:51;;;;;;;2.63;0.52;;;;;;;21.40;51.87;98891.31;15288511;19;20011;-56
2022/07/06 13:12:58;;;;;;;1.10;0.40;;;;;;;21.52;50.61;98905.19;15287750;19;20347;-53
2022/07/06 13:18:03;;;;;;;4.72;0.60;;;;;;;21.75;49.53;98892.81;15288168;19;20487;-54
2022/07/06 13:23:16;;;;;;;2.10;0.50;;;;;;;21.82;47.77;98891.66;15287810;19;20006;-53
2022/07/06 13:28:23;;;;;;;5.20;0.52;;;;;;;21.89;48.37;98885.31;15286171;19;20014;-56
2022/07/06 13:33:29;;;;;;;4.22;0.40;;;;;;;21.99;48.69;98880.97;15285575;19;20050;-56
2022/07/06 13:38:33;;;;;;;1.42;0.52;;;;;;;21.52;48.22;98885.97;15286923;19;20043;-56
2022/07/06 13:43:41;;;;;;;2.25;0.60;;;;;;;21.45;48.84;98885.16;15286343;19;20007;-57
2022/07/06 13:48:46;;;;;;;2.55;0.55;;;;;;;21.35;48.89;98886.50;15280799;19;20491;-56
2022/07/06 13:53:52;;;;;;;3.05;0.60;;;;;;;21.81;47.26;98867.22;15290028;19;20124;-55
2022/07/06 13:59:00;;;;;;;3.30;0.60;;;;;;;22.23;45.68;98872.94;15285569;19;20034;-55
2022/07/06 14:04:05;;;;;;;4.57;0.60;;;;;;;22.50;46.93;98858.97;15285021;19;20019;-52
2022/07/06 14:09:10;;;;;;;1.60;0.70;;;;;;;22.46;45.48;98863.25;15278654;19;20050;-57
2022/07/06 14:14:18;;;;;;;1.75;0.40;;;;;;;22.19;45.61;98862.66;15287323;19;20042;-54
2022/07/06 14:19:22;;;;;;;2.90;0.60;;;;;;;22.23;47.02;98861.13;15277940;19;20010;-55
2022/07/06 14:24:27;;;;;;;2.15;0.50;;;;;;;22.08;45.38;98861.50;15283254;19;20010;-52
2022/07/06 14:29:38;;;;;;;3.33;0.47;;;;;;;22.62;44.81;98853.56;15281490;19;20480;-54
2022/07/06 14:34:43;;;;;;;3.53;0.47;;;;;;;22.51;43.81;98860.66;15286148;19;20317;-56
2022/07/06 14:39:48;;;;;;;2.65;0.40;;;;;;;22.94;44.17;98842.38;15271765;19;20768;-52
2022/07/06 14:44:56;;;;;;;1.23;0.40;;;;;;;23.63;43.17;98838.47;15285977;19;20380;-56
2022/07/06 14:50:01;;;;;;;2.60;0.40;;;;;;;23.03;42.89;98846.47;15271431;19;20014;-55
2022/07/06 14:55:08;;;;;;;2.85;0.40;;;;;;;23.02;43.75;98850.28;15282561;19;20026;-53
2022/07/06 15:00:22;;;;;;;2.10;0.35;;;;;;;23.24;42.88;98850.66;15279159;19;20014;-51
2022/07/06 15:05:27;;;;;;;1.67;0.50;;;;;;;23.49;42.65;98848.81;15275706;19;20010;-52
2022/07/06 15:10:34;;;;;;;2.33;0.50;;;;;;;23.16;43.34;98844.63;15272255;19;20018;-55
2022/07/06 15:15:43;;;;;;;2.55;0.50;;;;;;;22.39;43.86;98866.06;15278823;19;20477;-53
2022/07/06 15:21:11;;;;;;;1.60;0.38;;;;;;;22.36;43.20;98852.78;15278560;19;20010;-55
2022/07/06 15:26:21;;;;;;;4.45;0.60;;;;;;;22.47;43.86;98846.53;15280130;19;20030;-53
2022/07/06 15:31:31;;;;;;;3.70;0.30;;;;;;;22.88;44.88;98835.91;15281895;19;20002;-58
2022/07/06 15:36:37;;;;;;;2.30;0.40;;;;;;;22.59;44.31;98840.28;15279160;19;20416;-57
2022/07/06 15:41:42;;;;;;;0.75;0.40;;;;;;;22.62;43.74;98835.16;15273972;19;20027;-58
2022/07/06 15:46:50;;;;;;;1.90;0.45;;;;;;;22.24;44.66;98849.09;15279419;19;20014;-60
2022/07/06 15:51:55;;;;;;;2.67;0.40;;;;;;;22.35;44.95;98834.63;15282338;19;20025;-59
2022/07/06 15:57:01;;;;;;;2.60;0.40;;;;;;;21.76;44.96;98840.47;15289725;19;20041;-53
2022/07/06 16:02:09;;;;;;;1.60;0.50;;;;;;;22.05;45.43;98846.31;15293232;19;20021;-59
2022/07/06 16:07:17;;;;;;;4.10;0.50;;;;;;;21.99;46.04;98831.59;15293341;19;20014;-56
2022/07/06 16:12:42;;;;;;;1.63;0.60;;;;;;;22.11;46.28;98839.94;15293554;19;20492;-55
2022/07/06 16:17:51;;;;;;;1.85;0.50;;;;;;;21.63;46.90;98819.50;15283334;19;20670;-57
2022/07/06 16:22:56;;;;;;;0.88;0.40;;;;;;;22.05;46.80;98820.78;15289253;19;20077;-52
2022/07/06 16:28:02;;;;;;;2.10;0.40;;;;;;;21.90;46.23;98829.38;15284701;19;20018;-53
2022/07/06 16:33:10;;;;;;;1.90;0.50;;;;;;;21.41;46.93;98821.72;15293602;19;20337;-56
2022/07/06 16:38:24;;;;;;;1.40;0.50;;;;;;;21.27;47.37;98822.88;15285303;19;20015;-59
2022/07/06 16:43:29;;;;;;;1.23;0.47;;;;;;;21.49;46.86;98813.22;15289037;19;20500;-56
2022/07/06 16:48:38;;;;;;;1.73;0.45;;;;;;;21.53;45.16;98816.34;15280795;19;20011;-52
2022/07/06 16:53:43;;;;;;;1.98;0.52;;;;;;;21.83;45.91;98816.56;15291720;19;20015;-57
2022/07/06 16:59:06;;;;;;;2.95;0.60;;;;;;;21.68;44.68;98814.16;15281567;19;20361;-55
2022/07/06 17:04:14;;;;;;;1.50;0.40;;;;;;;21.76;45.13;98815.78;15283341;19;20019;-56
2022/07/06 17:09:25;;;;;;;5.38;0.40;;;;;;;21.57;45.46;98819.50;15287743;19;20018;-57
2022/07/06 17:14:30;;;;;;;3.40;0.65;;;;;;;21.22;45.21;98829.88;15291142;19;20031;-56
2022/07/06 17:19:38;;;;;;;1.67;0.40;;;;;;;20.89;45.40;98819.94;15278685;19;20010;-56
2022/07/06 17:24:43;;;;;;;0.80;0.40;;;;;;;20.84;46.44;98825.25;15285397;19;20022;-58
2022/07/06 17:29:49;;;;;;;0.65;0.28;;;;;;;20.58;46.58;98827.00;15284238;19;20550;-56
2022/07/06 17:34:56;;;;;;;1.23;0.47;;;;;;;20.66;46.84;98825.06;15285843;19;20484;-51
2022/07/06 17:40:01;;;;;;;2.88;0.40;;;;;;;20.68;46.42;98836.66;15284028;19;20006;-53
2022/07/06 17:45:07;;;;;;;1.45;0.55;;;;;;;20.50;47.07;98837.34;15285392;19;20038;-57
2022/07/06 17:50:15;;;;;;;2.58;0.60;;;;;;;20.66;46.44;98827.81;15272511;19;20015;-52
2022/07/06 17:55:20;;;;;;;1.10;0.40;;;;;;;20.13;46.91;98841.44;15279675;19;20010;-56
2022/07/06 18:00:26;;;;;;;1.33;0.50;;;;;;;20.04;47.77;98847.38;15272263;19;20034;-55
2022/07/06 18:05:34;;;;;;;0.63;0.30;;;;;;;19.97;46.49;98852.84;15270947;19;20018;-55
2022/07/06 18:10:39;;;;;;;0.98;0.30;;;;;;;20.04;46.99;98852.84;15271359;19;20545;-55
2022/07/06 18:15:44;;;;;;;3.38;0.50;;;;;;;19.74;47.31;98858.69;15270229;19;20025;-76
2022/07/06 18:20:52;;;;;;;1.15;0.40;;;;;;;19.40;48.23;98853.25;15274966;19;20013;-76
2022/07/06 18:25:57;;;;;;;1.70;0.50;;;;;;;19.15;48.62;98862.00;15273401;19;20039;-77
2022/07/06 18:31:02;;;;;;;1.23;0.40;;;;;;;19.01;49.75;98847.47;15274008;19;20443;-77
2022/07/06 18:36:11;;;;;;;3.72;0.40;;;;;;;18.56;49.49;98855.25;15267741;19;20049;-76
2022/07/06 18:41:16;;;;;;;2.25;0.60;;;;;;;18.36;50.28;98846.94;15275390;19;20009;-78
2022/07/06 18:46:21;;;;;;;1.80;0.50;;;;;;;18.21;51.12;98844.34;15273133;19;20014;-75
2022/07/06 18:51:34;;;;;;;3.30;0.40;;;;;;;18.02;51.74;98842.13;15278975;19;20035;-80
2022/07/06 18:56:39;;;;;;;4.22;0.50;;;;;;;17.79;51.57;98842.38;15277855;19;20573;-80
2022/07/06 19:01:45;;;;;;;4.22;0.50;;;;;;;17.71;52.74;98840.63;15278032;19;21726;-78
2022/07/06 19:06:53;;;;;;;1.10;0.30;;;;;;;17.55;52.66;98836.31;15277196;19;20035;-77
2022/07/06 19:11:59;;;;;;;2.10;0.40;;;;;;;17.42;53.83;98830.75;15268851;19;20102;-75
2022/07/06 19:17:04;;;;;;;1.95;0.40;;;;;;;17.25;53.41;98850.06;15272192;19;20018;-77
2022/07/06 19:22:12;;;;;;;2.40;0.35;;;;;;;17.00;53.74;98838.72;15291506;19;20743;-80
2022/07/06 19:27:17;;;;;;;0.80;0.50;;;;;;;17.02;54.21;98847.53;15277605;19;20010;-79
2022/07/06 19:32:24;;;;;;;1.48;0.47;;;;;;;16.96;54.68;98853.72;15289393;19;20006;-74
2022/07/06 19:37:33;;;;;;;1.85;0.47;;;;;;;16.95;55.79;98862.94;15284843;19;20463;-74
2022/07/06 19:42:38;;;;;;;1.33;0.40;;;;;;;16.90;56.22;98859.94;15276409;19;20036;-78
2022/07/06 19:47:43;;;;;;;1.42;0.40;;;;;;;16.85;56.24;98862.38;15290566;19;20026;-78
2022/07/06 19:52:51;;;;;;;1.48;0.35;;;;;;;16.77;56.63;98866.03;15281146;19;20406;-76
2022/07/06 19:57:59;;;;;;;1.63;0.38;;;;;;;16.67;57.25;98860.06;15283800;19;20031;-76
2022/07/06 20:03:04;;;;;;;0.85;0.38;;;;;;;16.61;58.66;98857.06;15255017;19;20677;-76
2022/07/06 20:08:11;;;;;;;1.35;0.40;;;;;;;16.58;59.39;98854.72;15275975;19;20015;-76
2022/07/06 20:13:17;;;;;;;2.50;0.40;;;;;;;16.55;60.76;98855.09;15265033;19;20365;-76
2022/07/06 20:18:22;;;;;;;0.70;0.28;;;;;;;16.48;61.12;98857.72;15275770;19;20015;-76
2022/07/06 20:23:30;;;;;;;3.13;0.50;;;;;;;16.40;62.06;98854.28;15278211;19;20042;-76
2022/07/06 20:28:38;;;;;;;1.35;0.50;;;;;;;16.26;63.36;98854.09;15276271;19;20010;-76
2022/07/06 20:33:43;;;;;;;4.07;0.60;;;;;;;16.20;65.38;98851.28;15271099;19;20031;-76
2022/07/06 20:38:51;;;;;;;4.47;0.55;;;;;;;16.10;65.87;98849.69;15280871;19;20432;-76
2022/07/06 20:43:56;;;;;;;4.22;0.57;;;;;;;16.04;67.10;98846.88;15283574;19;20017;-76
2022/07/06 20:49:02;;;;;;;6.07;0.80;;;;;;;15.98;68.98;98845.75;15284582;19;20014;-76
2022/07/06 20:54:11;;;;;;;5.68;1.00;;;;;;;15.90;70.14;98843.94;15284576;19;20006;-76
2022/07/06 20:59:16;;;;;;;6.18;0.70;;;;;;;15.80;71.68;98844.19;15286742;19;20353;-76
2022/07/06 21:04:23;;;;;;;6.68;0.73;;;;;;;15.74;72.58;98838.63;15281882;19;20734;-76
2022/07/06 21:09:30;;;;;;;5.13;0.75;;;;;;;15.66;75.00;98844.97;15290123;19;20034;-76
2022/07/06 21:14:35;;;;;;;6.40;0.60;;;;;;;15.59;77.92;98844.88;15289475;19;20050;-77
2022/07/06 21:19:40;;;;;;;5.00;0.73;;;;;;;15.53;79.79;98849.16;15287684;19;20022;-76
2022/07/06 21:24:48;;;;;;;3.03;0.60;;;;;;;15.46;82.00;98842.78;15286287;19;20011;-76
2022/07/06 21:29:54;;;;;;;2.03;0.68;;;;;;;15.39;83.48;98841.84;15294522;19;20017;-76
2022/07/06 21:35:00;;;;;;;1.88;0.55;;;;;;;15.28;89.43;98832.25;15294444;19;20059;-76
2022/07/06 21:40:11;;;;;;;3.83;0.68;;;;;;;15.20;90.53;98826.88;15303649;19;20006;-77
2022/07/06 21:45:17;;;;;;;;;;;;;;;15.13;91.10;98828.63;15349424;19;20082;-76
2022/07/06 21:50:23;;;;;;;3.67;0.70;;;;;;;15.04;92.61;98827.84;15305914;19;20463;-76
2022/07/06 21:55:31;;;;;;;1.88;0.60;;;;;;;14.97;92.83;98830.44;15288479;19;20011;-77
2022/07/06 22:00:37;;;;;;;5.40;0.80;;;;;;;14.90;93.15;98821.31;15282780;19;20017;-75
2022/07/06 22:05:43;;;;;;;2.67;0.63;;;;;;;14.83;95.55;98820.34;15279402;19;20021;-76
2022/07/06 22:10:51;;;;;;;1.60;0.50;;;;;;;14.77;95.87;98814.59;15273590;19;20105;-77
2022/07/06 22:15:57;;;;;;;6.82;0.70;;;;;;;14.71;97.31;98809.91;15277571;19;20021;-76
2022/07/06 22:21:02;;;;;;;2.90;0.60;;;;;;;14.67;98.64;98811.28;15273230;19;20027;-76
2022/07/06 22:26:13;;;;;;;3.67;0.60;;;;;;;14.62;99.92;98809.06;15272585;19;20026;-76
2022/07/06 22:31:20;;;;;;;4.32;0.65;;;;;;;14.54;100.00;98816.41;15273105;19;20037;-76
2022/07/06 22:36:27;;;;;;;2.65;0.70;;;;;;;14.47;100.00;98808.97;15274327;19;20034;-77
2022/07/06 22:41:36;;;;;;;3.15;0.60;;;;;;;14.42;100.00;98803.22;15269493;19;20401;-76
2022/07/06 22:46:41;;;;;;;4.05;0.60;;;;;;;14.39;100.00;98808.16;15275324;19;20014;-76
2022/07/06 22:51:46;;;;;;;2.63;0.50;;;;;;;14.35;100.00;98794.13;15276239;19;20023;-77
2022/07/06 22:56:53;;;;;;;2.90;0.55;;;;;;;14.30;100.00;98791.09;15274846;19;20007;-75
2022/07/06 23:01:58;;;;;;;0.75;0.35;;;;;;;14.28;100.00;98795.88;15274598;19;20039;-74
2022/07/06 23:07:03;;;;;;;1.67;0.60;;;;;;;14.24;100.00;98783.69;15273671;19;20016;-75
2022/07/06 23:12:11;;;;;;;2.03;0.50;;;;;;;14.15;100.00;98778.31;15272533;19;20019;-75
2022/07/06 23:17:16;;;;;;;3.50;0.60;;;;;;;14.11;100.00;98779.66;15276412;19;20032;-76
2022/07/06 23:22:21;;;;;;;2.53;0.60;;;;;;;14.13;100.00;98774.91;15278429;19;20014;-75
2022/07/06 23:27:29;;;;;;;1.77;0.60;;;;;;;14.11;100.00;98768.81;15269962;19;20039;-75
2022/07/06 23:32:34;;;;;;;2.22;0.50;;;;;;;14.08;100.00;98771.06;15277469;19;20014;-75
2022/07/06 23:37:41;;;;;;;1.00;0.50;;;;;;;14.08;100.00;98768.34;15277359;19;20483;-75
2022/07/06 23:42:49;;;;;;;1.40;0.50;;;;;;;14.05;100.00;98764.13;15277875;19;20070;-74
2022/07/06 23:47:53;;;;;;;1.38;0.45;;;;;;;14.01;100.00;98763.59;15272973;19;20027;-74
2022/07/06 23:52:58;;;;;;;0.80;0.40;;;;;;;13.99;100.00;98759.38;15275196;19;20046;-75
2022/07/06 23:58:06;;;;;;;3.05;0.47;;;;;;;13.97;100.00;98756.00;15272036;19;20006;-75
